Time;durP1;ratioP1;P1;durP2;ratioP2;P2;SDS_P1;SDS_P2;PMS_P1;PMS_P2;Temp;Humidity;BMP_temperature;BMP_pressure;BME280_temperature;BME280_humidity;BME280_pressure;Samples;Min_cycle;Max_cycle;Signal;HPM_P1;HPM_P2
2021/03/25 00:01:35;;;;;;;50.35;29.40;;;;;;;3.79;97.90;100991.28;5043372;28;20120;-81
2021/03/25 00:04:01;;;;;;;51.15;30.33;;;;;;;3.73;98.13;101000.56;5064374;28;20091;-81
2021/03/25 00:06:28;;;;;;;56.15;29.95;;;;;;;3.73;98.75;100987.75;5046962;28;20435;-81
2021/03/25 00:08:54;;;;;;;49.90;28.70;;;;;;;3.52;99.44;100988.25;5046184;28;20108;-82
2021/03/25 00:11:20;;;;;;;53.80;29.45;;;;;;;3.56;98.53;100995.13;5046385;28;20025;-81
2021/03/25 00:13:45;;;;;;;54.78;30.08;;;;;;;3.44;98.94;100988.94;5064075;28;20029;-82
2021/03/25 00:16:11;;;;;;;51.63;28.85;;;;;;;3.34;99.77;100996.47;5046098;28;20036;-81
2021/03/25 00:18:38;;;;;;;54.83;29.15;;;;;;;3.23;99.06;100994.56;5063323;28;20082;-81
2021/03/25 00:21:05;;;;;;;56.03;31.98;;;;;;;3.16;99.24;100994.41;5063608;28;20033;-81
2021/03/25 00:23:31;;;;;;;54.35;33.08;;;;;;;3.12;100.00;100996.06;5063958;28;20036;-81
2021/03/25 00:25:56;;;;;;;59.03;31.90;;;;;;;3.11;100.00;100996.91;5045646;28;20024;-81
2021/03/25 00:28:22;;;;;;;57.72;31.90;;;;;;;3.18;100.00;100993.63;5045414;28;20033;-82
2021/03/25 00:30:47;;;;;;;60.35;32.17;;;;;;;3.24;100.00;100995.44;5063330;28;20037;-81
2021/03/25 00:33:15;;;;;;;59.80;32.92;;;;;;;3.16;100.00;100995.28;5045875;28;20098;-81
2021/03/25 00:35:42;;;;;;;60.67;31.15;;;;;;;3.18;100.00;100985.94;5064163;28;20049;-81
2021/03/25 00:38:11;;;;;;;51.97;29.95;;;;;;;3.29;100.00;100990.38;5064324;28;20100;-81
2021/03/25 00:40:36;;;;;;;54.33;31.55;;;;;;;3.41;100.00;100985.47;5045824;28;20025;-81
2021/03/25 00:43:04;;;;;;;58.15;31.33;;;;;;;3.43;100.00;100994.94;5045617;28;20021;-81
2021/03/25 00:45:36;;;;;;;62.60;33.58;;;;;;;3.58;100.00;100990.91;5063474;28;20112;-81
2021/03/25 00:48:02;;;;;;;53.83;32.42;;;;;;;3.45;100.00;100994.97;5063213;28;20028;-81
2021/03/25 00:50:36;;;;;;;70.65;33.42;;;;;;;3.68;100.00;100987.66;5045165;28;20013;-81
2021/03/25 00:53:02;;;;;;;57.35;33.28;;;;;;;3.62;100.00;100993.53;5045614;28;20025;-81
2021/03/25 00:55:27;;;;;;;60.22;33.92;;;;;;;3.67;100.00;100997.06;5045351;28;20036;-81
2021/03/25 00:57:53;;;;;;;50.05;29.90;;;;;;;3.44;100.00;100998.34;5044744;28;20025;-81
2021/03/25 01:00:28;;;;;;;51.60;30.98;;;;;;;3.45;100.00;101000.94;5044533;28;20071;-82
2021/03/25 01:02:53;;;;;;;60.72;32.63;;;;;;;3.58;100.00;100996.91;5046842;28;20053;-81
2021/03/25 01:05:20;;;;;;;60.97;32.63;;;;;;;3.62;100.00;101000.38;5044054;28;20027;-81
2021/03/25 01:07:46;;;;;;;62.90;31.67;;;;;;;3.54;100.00;100995.13;5044147;28;20131;-81
2021/03/25 01:10:25;;;;;;;60.58;33.33;;;;;;;3.66;100.00;100999.59;5045054;28;20017;-82
2021/03/25 01:12:50;;;;;;;64.50;32.70;;;;;;;3.68;100.00;101003.91;5062396;28;20122;-81
2021/03/25 01:15:16;;;;;;;58.45;33.22;;;;;;;3.75;100.00;101004.00;5044804;28;20028;-81
2021/03/25 01:17:52;;;;;;;58.42;32.38;;;;;;;3.76;100.00;100995.50;5044271;28;20058;-82
2021/03/25 01:20:24;;;;;;;67.15;34.10;;;;;;;3.64;100.00;100996.16;5044766;28;20048;-81
2021/03/25 01:22:50;;;;;;;63.38;33.63;;;;;;;3.78;100.00;100988.66;5062757;28;20108;-81
2021/03/25 01:25:17;;;;;;;58.08;34.00;;;;;;;3.84;100.00;100996.47;5045538;28;20055;-81
2021/03/25 01:27:42;;;;;;;64.78;34.65;;;;;;;3.71;100.00;100990.28;5045651;28;20052;-81
2021/03/25 01:30:08;;;;;;;58.03;34.67;;;;;;;3.82;100.00;100995.59;5044993;28;20063;-81
2021/03/25 01:32:34;;;;;;;56.60;32.00;;;;;;;3.78;100.00;100994.66;5063498;28;20033;-81
2021/03/25 01:34:59;;;;;;;57.25;32.08;;;;;;;3.60;100.00;100994.34;5064392;28;20067;-80
2021/03/25 01:37:24;;;;;;;60.60;33.50;;;;;;;3.60;100.00;100995.25;5046407;28;20025;-81
2021/03/25 01:39:50;;;;;;;55.88;31.35;;;;;;;3.65;100.00;100993.59;5063181;28;20031;-81
2021/03/25 01:42:25;;;;;;;63.38;33.75;;;;;;;3.69;100.00;100994.50;5044927;28;20078;-81
2021/03/25 01:44:50;;;;;;;63.88;33.33;;;;;;;3.81;100.00;100993.84;5043795;28;20021;-80
2021/03/25 01:47:16;;;;;;;53.45;31.13;;;;;;;3.96;100.00;100988.09;5061805;28;20101;-81
2021/03/25 01:49:41;;;;;;;62.47;32.63;;;;;;;3.87;100.00;100996.50;5044134;28;20090;-81
2021/03/25 01:52:28;;;;;;;59.85;32.25;;;;;;;3.73;100.00;100996.31;5043711;28;20566;-81
2021/03/25 01:55:11;;;;;;;54.58;30.35;;;;;;;3.52;100.00;100995.94;5044347;28;20040;-81
2021/03/25 01:57:53;;;;;;;53.65;30.13;;;;;;;3.59;100.00;100998.63;5062857;28;20056;-82
2021/03/25 02:00:26;;;;;;;54.60;31.83;;;;;;;3.75;100.00;100996.31;5062532;28;20021;-81
2021/03/25 02:03:10;;;;;;;61.42;32.58;;;;;;;3.84;100.00;100997.31;5063661;28;20025;-80
2021/03/25 02:05:44;;;;;;;56.85;32.20;;;;;;;3.93;100.00;100999.19;5043780;28;20052;-81
2021/03/25 02:08:48;;;;;;;57.55;31.30;;;;;;;3.99;100.00;100990.72;5061211;28;20032;-81
2021/03/25 02:11:27;;;;;;;57.22;30.98;;;;;;;4.15;99.57;100990.09;5061604;28;20029;-80
2021/03/25 02:14:18;;;;;;;56.75;32.58;;;;;;;4.20;99.03;100993.63;5061613;28;20024;-81
2021/03/25 02:17:09;;;;;;;55.38;30.80;;;;;;;4.22;98.79;100984.25;5042317;28;20059;-81
2021/03/25 02:19:59;;;;;;;60.55;31.58;;;;;;;4.32;98.72;100990.38;5061356;28;20105;-81
2021/03/25 02:22:50;;;;;;;58.90;30.60;;;;;;;4.27;98.37;100984.28;5043156;28;20024;-81
2021/03/25 02:25:23;;;;;;;54.63;29.88;;;;;;;4.24;99.12;100985.09;5060402;28;20028;-81
2021/03/25 02:28:10;;;;;;;59.33;33.17;;;;;;;4.32;99.38;100987.78;5042676;28;20489;-81
2021/03/25 02:30:49;;;;;;;54.28;30.75;;;;;;;4.27;98.70;100987.72;5059387;28;20029;-81
2021/03/25 02:33:19;;;;;;;58.50;33.03;;;;;;;4.27;98.82;100980.00;5041884;28;20032;-81
2021/03/25 02:35:51;;;;;;;59.80;32.72;;;;;;;4.37;98.89;100976.75;5060649;28;20489;-81
2021/03/25 02:38:23;;;;;;;64.30;34.05;;;;;;;4.47;98.53;100974.31;5042203;28;20025;-81
2021/03/25 02:41:00;;;;;;;56.80;32.17;;;;;;;4.56;98.02;100974.44;5060527;28;20049;-82
2021/03/25 02:43:43;;;;;;;61.25;35.42;;;;;;;4.52;98.43;100972.66;5061464;28;20021;-81
2021/03/25 02:46:26;;;;;;;54.42;32.97;;;;;;;4.49;98.32;100976.03;5062387;28;20036;-81
2021/03/25 02:48:56;;;;;;;60.38;33.08;;;;;;;4.43;98.27;100980.22;5043399;28;20083;-82
2021/03/25 02:51:31;;;;;;;58.10;34.15;;;;;;;4.29;98.74;100975.78;5061769;28;20037;-81
2021/03/25 02:53:56;;;;;;;61.22;34.22;;;;;;;4.27;99.17;100979.16;5043182;28;20048;-81
2021/03/25 02:56:38;;;;;;;65.22;33.95;;;;;;;4.28;99.49;100980.88;5061865;28;20512;-81
2021/03/25 02:59:08;;;;;;;59.10;32.20;;;;;;;4.27;99.10;100971.44;5043455;28;20025;-82
2021/03/25 03:01:37;;;;;;;62.67;34.58;;;;;;;4.31;99.36;100979.22;5042145;28;20025;-81
2021/03/25 03:04:10;;;;;;;57.08;34.55;;;;;;;4.43;99.16;100975.09;5061085;28;20370;-82
2021/03/25 03:06:41;;;;;;;65.38;33.90;;;;;;;4.44;98.90;100981.97;5042786;28;20082;-81
2021/03/25 03:09:12;;;;;;;69.55;37.78;;;;;;;4.57;98.86;100973.56;5042152;28;20131;-81
2021/03/25 03:11:43;;;;;;;64.75;36.13;;;;;;;4.49;98.85;100980.31;5042409;28;20063;-81
2021/03/25 03:14:13;;;;;;;66.85;39.22;;;;;;;4.69;98.63;100976.31;5040185;28;20017;-81
2021/03/25 03:16:48;;;;;;;68.75;40.03;;;;;;;4.65;98.59;100976.22;5059106;28;20047;-81
2021/03/25 03:19:34;;;;;;;70.95;39.17;;;;;;;4.66;98.25;100972.84;5059163;28;20395;-81
2021/03/25 03:22:04;;;;;;;64.93;38.28;;;;;;;4.52;98.37;100972.66;5040921;28;20029;-81
2021/03/25 03:24:30;;;;;;;68.10;37.95;;;;;;;4.54;98.92;100976.09;5041270;28;20052;-81
2021/03/25 03:27:04;;;;;;;69.15;38.35;;;;;;;4.63;98.71;100977.94;5040591;28;20453;-81
2021/03/25 03:29:31;;;;;;;62.92;37.90;;;;;;;4.59;98.88;100975.31;5023484;28;518024;-81
2021/03/25 03:32:23;;;;;;;65.63;38.38;;;;;;;4.70;98.68;100972.03;5042545;28;20029;-81
2021/03/25 03:34:54;;;;;;;72.70;38.83;;;;;;;4.65;98.67;100968.53;5042908;28;20025;-81
2021/03/25 03:37:24;;;;;;;65.45;37.63;;;;;;;4.70;98.18;100967.75;5063959;28;20029;-81
2021/03/25 03:39:54;;;;;;;68.93;38.80;;;;;;;4.52;98.74;100962.38;5063998;28;20048;-81
2021/03/25 03:42:22;;;;;;;59.63;37.42;;;;;;;4.45;99.25;100964.00;5045474;28;20047;-81
2021/03/25 03:44:51;;;;;;;62.33;35.25;;;;;;;4.44;99.49;100966.56;5046103;28;20054;-81
2021/03/25 03:47:21;;;;;;;66.45;36.17;;;;;;;4.30;99.79;100969.78;5046553;28;20542;-81
2021/03/25 03:49:52;;;;;;;71.07;35.75;;;;;;;4.29;100.00;100964.66;5046007;28;20037;-81
2021/03/25 03:52:30;;;;;;;58.75;35.25;;;;;;;4.24;100.00;100954.28;5046641;28;20075;-81
2021/03/25 03:54:57;;;;;;;59.17;32.42;;;;;;;4.23;99.95;100959.41;5046383;28;20028;-81
2021/03/25 03:57:35;;;;;;;59.60;34.38;;;;;;;4.25;99.59;100961.19;5046824;28;20025;-81
2021/03/25 04:00:10;;;;;;;57.80;31.77;;;;;;;4.13;99.60;100964.44;5046930;28;20024;-81
2021/03/25 04:02:40;;;;;;;59.17;31.27;;;;;;;4.10;99.98;100956.69;5047117;28;20092;-82
2021/03/25 04:05:30;;;;;;;51.53;30.27;;;;;;;4.09;100.00;100960.06;5065972;28;20031;-81
2021/03/25 04:08:05;;;;;;;58.20;32.53;;;;;;;4.13;99.71;100966.13;5065576;28;20493;-82
2021/03/25 04:10:42;;;;;;;52.53;29.58;;;;;;;4.05;100.00;100957.44;5046275;28;20076;-81
2021/03/25 04:13:15;;;;;;;56.05;32.72;;;;;;;4.01;100.00;100959.09;5065488;28;20028;-81
2021/03/25 04:15:48;;;;;;;58.70;30.85;;;;;;;3.96;100.00;100959.88;5065506;28;20020;-81
2021/03/25 04:18:24;;;;;;;52.33;31.50;;;;;;;3.83;100.00;100952.00;5046758;28;20020;-82
2021/03/25 04:20:54;;;;;;;59.10;32.58;;;;;;;3.84;100.00;100958.84;5066199;28;20028;-81
2021/03/25 04:23:22;;;;;;;62.60;32.13;;;;;;;3.58;100.00;100966.13;5065167;28;20020;-81
2021/03/25 04:26:00;;;;;;;57.33;30.58;;;;;;;3.47;100.00;100967.63;5063057;28;20051;-81
2021/03/25 04:28:37;;;;;;;56.90;31.05;;;;;;;3.45;100.00;100962.50;5063750;28;20088;-82
2021/03/25 04:31:05;;;;;;;51.60;29.38;;;;;;;3.69;100.00;100971.41;5047661;28;20440;-81
2021/03/25 04:33:31;;;;;;;60.53;31.27;;;;;;;3.76;100.00;100959.59;5066348;28;20047;-81
2021/03/25 04:35:58;;;;;;;55.03;30.40;;;;;;;3.78;100.00;100969.00;5065102;28;20025;-81
2021/03/25 04:38:29;;;;;;;53.90;29.92;;;;;;;3.89;100.00;100970.03;5064840;28;20060;-82
2021/03/25 04:40:56;;;;;;;54.38;30.65;;;;;;;3.96;100.00;100962.44;5064550;28;20016;-81
2021/03/25 04:43:23;;;;;;;56.35;31.33;;;;;;;3.99;100.00;100971.03;5046555;28;20111;-81
2021/03/25 04:46:26;;;;;;;61.08;31.95;;;;;;;4.02;100.00;100967.66;5064656;28;20082;-80
2021/03/25 04:48:53;;;;;;;54.83;29.48;;;;;;;3.98;100.00;100965.91;5044220;28;20028;-81
2021/03/25 04:51:22;;;;;;;54.08;30.17;;;;;;;4.01;100.00;100977.06;5063531;28;20025;-81
2021/03/25 04:53:49;;;;;;;50.60;30.92;;;;;;;4.10;100.00;100984.91;5044801;28;20119;-80
2021/03/25 04:56:18;;;;;;;55.85;32.05;;;;;;;4.25;100.00;100981.72;5045001;28;20025;-80
2021/03/25 04:58:54;;;;;;;54.35;30.38;;;;;;;4.34;99.76;100976.72;5044617;28;20404;-82
2021/03/25 05:01:23;;;;;;;58.33;32.08;;;;;;;4.37;99.71;100981.88;5062854;28;20562;-81
2021/03/25 05:03:53;;;;;;;62.03;32.20;;;;;;;4.36;99.60;100984.41;5044826;28;20056;-81
2021/03/25 05:06:28;;;;;;;50.90;30.52;;;;;;;4.48;98.38;100981.16;5045705;28;20029;-81
2021/03/25 05:08:55;;;;;;;58.78;30.80;;;;;;;4.55;98.10;100977.81;5062697;28;20059;-81
2021/03/25 05:11:23;;;;;;;52.40;30.65;;;;;;;4.50;98.36;100975.22;5045119;28;20024;-80
2021/03/25 05:13:49;;;;;;;55.17;30.67;;;;;;;4.55;97.67;100985.53;5063882;28;20039;-80
2021/03/25 05:16:21;;;;;;;53.92;30.50;;;;;;;4.58;97.67;100976.16;5063880;28;20040;-80
2021/03/25 05:18:56;;;;;;;59.75;31.23;;;;;;;4.60;97.22;100982.19;5063333;28;20020;-81
2021/03/25 05:21:34;;;;;;;56.33;31.45;;;;;;;4.51;97.39;100991.47;5064224;28;20497;-80
2021/03/25 05:24:10;;;;;;;56.03;32.33;;;;;;;4.51;97.40;100988.91;5064005;28;20115;-80
2021/03/25 05:26:47;;;;;;;55.30;30.08;;;;;;;4.56;97.41;100997.56;5044709;28;20036;-80
2021/03/25 05:29:14;;;;;;;50.50;30.88;;;;;;;4.52;97.64;100995.75;5064413;23;20045;-78
2021/03/25 05:31:43;;;;;;;56.08;33.03;;;;;;;4.51;97.70;100994.03;5038201;28;20043;-79
2021/03/25 05:34:08;;;;;;;56.60;32.53;;;;;;;4.56;97.70;100994.97;5056022;28;20036;-78
2021/03/25 05:36:35;;;;;;;56.67;31.48;;;;;;;4.55;97.23;100998.38;5055486;28;20025;-79
2021/03/25 05:39:01;;;;;;;52.63;31.88;;;;;;;4.58;97.42;101000.97;5055849;28;20059;-78
2021/03/25 05:41:33;;;;;;;58.80;32.03;;;;;;;4.58;97.14;101003.56;5056180;28;20026;-78
2021/03/25 05:44:22;;;;;;;56.33;31.92;;;;;;;4.62;97.00;100997.63;5055381;28;20025;-78
2021/03/25 05:47:27;;;;;;;50.03;31.35;;;;;;;4.69;96.60;101001.13;5056569;28;20044;-79
2021/03/25 05:50:20;;;;;;;59.55;31.55;;;;;;;4.77;96.20;101000.41;5055571;28;20028;-79
2021/03/25 05:53:03;;;;;;;58.80;30.13;;;;;;;4.82;96.42;101015.84;5037982;28;20063;-78
2021/03/25 05:55:57;;;;;;;53.65;30.48;;;;;;;4.82;95.88;101013.28;5056671;28;20082;-78
2021/03/25 05:58:36;;;;;;;57.50;30.13;;;;;;;4.90;95.66;101015.97;5010143;28;20472;-78
2021/03/25 06:01:26;;;;;;;50.08;30.27;;;;;;;5.00;95.18;101015.22;5056338;28;20032;-79
2021/03/25 06:03:58;;;;;;;53.08;31.20;;;;;;;5.01;95.56;101022.94;5041137;28;20025;-79
2021/03/25 06:06:53;;;;;;;53.05;30.60;;;;;;;5.08;94.26;101023.91;5060551;28;20044;-79
2021/03/25 06:09:27;;;;;;;;;;;;;;;5.11;95.18;101023.94;5034442;28;20038;-79
2021/03/25 06:12:01;;;;;;;56.22;29.85;;;;;;;5.19;93.58;101026.59;5041718;28;20333;-79
2021/03/25 06:14:49;;;;;;;52.37;31.37;;;;;;;5.20;93.69;101033.44;5041729;28;20024;-79
2021/03/25 06:17:39;;;;;;;56.75;30.60;;;;;;;5.28;93.40;101042.97;5046203;28;20043;-79
2021/03/25 06:20:20;;;;;;;50.28;30.75;;;;;;;5.37;92.89;101039.66;5064552;28;20538;-79
2021/03/25 06:23:05;;;;;;;52.97;29.95;;;;;;;5.35;92.76;101043.03;5066197;28;20051;-80
2021/03/25 06:25:44;;;;;;;53.95;29.02;;;;;;;5.25;93.01;101044.66;5068767;28;20376;-82
2021/03/25 06:28:28;;;;;;;55.78;30.85;;;;;;;5.35;93.56;101050.75;5050713;28;20027;-82
2021/03/25 06:31:09;;;;;;;57.95;30.60;;;;;;;5.44;92.64;101049.13;5052294;28;20489;-82
2021/03/25 06:33:41;;;;;;;53.92;31.75;;;;;;;5.46;92.69;101052.59;5053373;28;20036;-83
2021/03/25 06:36:12;;;;;;;55.33;29.95;;;;;;;5.52;92.59;101052.66;5062193;28;20504;-81
2021/03/25 06:38:41;;;;;;;48.90;30.58;;;;;;;5.71;91.27;101048.56;5044373;28;20060;-82
2021/03/25 06:41:28;;;;;;;49.92;29.70;;;;;;;5.32;92.69;101049.88;5063254;28;20024;-81
2021/03/25 06:44:05;;;;;;;53.28;30.00;;;;;;;5.57;92.23;101057.84;5042579;28;20025;-81
2021/03/25 06:46:39;;;;;;;55.53;32.08;;;;;;;5.62;91.95;101052.75;5059948;28;20025;-82
2021/03/25 06:49:25;;;;;;;53.03;30.73;;;;;;;5.55;92.29;101051.84;5061559;28;20025;-82
2021/03/25 06:51:50;;;;;;;54.72;31.08;;;;;;;5.52;92.38;101059.53;5042633;28;20120;-82
2021/03/25 06:54:27;;;;;;;53.83;30.83;;;;;;;5.56;92.75;101063.84;5043031;28;20053;-82
2021/03/25 06:56:59;;;;;;;58.80;30.98;;;;;;;5.49;92.67;101056.91;5041922;28;20366;-82
2021/03/25 06:59:35;;;;;;;57.63;31.35;;;;;;;5.65;92.40;101058.78;5041312;28;20453;-81
2021/03/25 07:02:09;;;;;;;58.33;32.15;;;;;;;5.82;91.60;101052.94;5042540;28;20044;-82
2021/03/25 07:04:40;;;;;;;62.08;32.22;;;;;;;5.89;91.52;101057.31;5059927;28;20125;-82
2021/03/25 07:07:10;;;;;;;60.30;32.30;;;;;;;5.98;91.18;101060.00;5041496;28;20025;-82
2021/03/25 07:09:37;;;;;;;52.13;31.20;;;;;;;6.00;90.24;101066.00;5043562;28;20059;-82
2021/03/25 07:12:13;;;;;;;50.33;31.05;;;;;;;6.05;90.46;101069.50;5044974;28;20028;-82
2021/03/25 07:14:42;;;;;;;58.08;31.45;;;;;;;6.18;89.77;101068.72;5047360;28;20024;-82
2021/03/25 07:17:10;;;;;;;56.92;30.67;;;;;;;6.08;89.95;101061.78;5062710;28;20089;-82
2021/03/25 07:19:38;;;;;;;56.58;31.10;;;;;;;6.00;90.88;101063.44;5063104;28;20040;-82
2021/03/25 07:22:19;;;;;;;59.92;32.30;;;;;;;6.03;91.29;101075.47;5045931;28;20438;-83
2021/03/25 07:24:45;;;;;;;53.88;31.38;;;;;;;6.08;89.76;101066.94;5061539;28;20104;-83
2021/03/25 07:27:25;;;;;;;54.85;31.60;;;;;;;6.17;90.85;101074.75;5060297;28;20105;-83
2021/03/25 07:29:59;;;;;;;56.45;32.05;;;;;;;6.29;89.91;101075.69;5060507;28;20025;-83
2021/03/25 07:32:34;;;;;;;50.00;30.38;;;;;;;6.16;90.09;101073.03;5063305;28;20029;-83
2021/03/25 07:35:30;;;;;;;56.13;30.65;;;;;;;6.17;91.24;101077.31;5060775;28;20029;-82
2021/03/25 07:37:59;;;;;;;52.35;30.27;;;;;;;6.37;90.67;101081.75;5059532;28;20094;-83
2021/03/25 07:40:32;;;;;;;52.55;29.35;;;;;;;6.32;90.54;101079.16;5043049;28;20013;-82
2021/03/25 07:43:17;;;;;;;58.67;30.47;;;;;;;6.20;90.82;101079.06;5040781;28;20428;-81
2021/03/25 07:45:42;;;;;;;52.92;28.10;;;;;;;6.20;91.19;101079.91;5058331;28;20025;-80
2021/03/25 07:48:22;;;;;;;51.63;29.30;;;;;;;6.37;90.29;101085.22;5058656;28;20104;-80
2021/03/25 07:50:50;;;;;;;48.90;29.58;;;;;;;6.57;89.73;101082.78;5040516;28;20120;-80
2021/03/25 07:53:27;;;;;;;50.80;28.15;;;;;;;6.47;90.51;101088.72;5058286;28;20043;-80
2021/03/25 07:56:08;;;;;;;49.35;27.50;;;;;;;6.62;89.86;101088.81;5040493;28;20017;-80
2021/03/25 07:58:47;;;;;;;48.67;25.90;;;;;;;6.76;88.76;101086.31;5040023;28;20046;-79
2021/03/25 08:01:23;;;;;;;47.72;26.42;;;;;;;6.73;88.79;101091.47;5058441;28;20025;-80
2021/03/25 08:03:51;;;;;;;45.22;26.77;;;;;;;6.63;89.18;101080.22;5058832;28;20028;-79
2021/03/25 08:06:22;;;;;;;46.83;27.33;;;;;;;6.71;88.44;101084.56;5043687;28;20068;-79
2021/03/25 08:09:17;;;;;;;49.60;25.48;;;;;;;6.75;87.71;101089.75;5061024;28;20485;-80
2021/03/25 08:11:58;;;;;;;45.53;24.60;;;;;;;6.94;88.14;101087.28;5027880;28;20068;-81
2021/03/25 08:14:26;;;;;;;41.35;23.67;;;;;;;7.15;87.14;101085.66;5041715;28;20025;-81
2021/03/25 08:16:56;;;;;;;46.03;25.67;;;;;;;7.54;84.60;101083.19;5041128;28;20469;-80
2021/03/25 08:19:43;;;;;;;42.60;25.35;;;;;;;7.82;83.97;101084.16;5040152;28;20132;-80
2021/03/25 08:22:39;;;;;;;46.15;26.33;;;;;;;7.57;84.63;101090.94;5058808;28;20025;-80
2021/03/25 08:25:39;;;;;;;40.50;24.33;;;;;;;8.81;79.14;101088.44;5041311;28;20025;-80
2021/03/25 08:28:13;;;;;;;40.97;23.70;;;;;;;9.19;75.72;101087.44;5058798;28;20021;-80
2021/03/25 08:31:04;;;;;;;45.35;24.80;;;;;;;9.61;74.94;101088.13;5058398;28;20063;-79
2021/03/25 08:33:56;;;;;;;40.75;23.52;;;;;;;8.95;77.37;101090.97;5028508;28;20036;-80
2021/03/25 08:36:56;;;;;;;39.95;22.92;;;;;;;9.68;74.48;101089.78;5058901;28;20044;-79
2021/03/25 08:39:53;;;;;;;39.33;22.50;;;;;;;10.04;71.75;101086.09;5041411;28;20400;-80
2021/03/25 08:42:35;;;;;;;32.53;20.30;;;;;;;11.21;68.39;101093.63;5041624;28;20017;-81
2021/03/25 08:45:07;;;;;;;37.65;21.70;;;;;;;10.69;69.15;101088.16;5041719;28;20381;-80
2021/03/25 08:47:58;;;;;;;39.38;22.17;;;;;;;10.07;71.18;101093.84;5041927;28;20056;-81
2021/03/25 08:50:59;;;;;;;37.00;20.70;;;;;;;9.67;74.08;101088.06;5058698;28;20112;-81
2021/03/25 08:53:40;;;;;;;38.47;23.20;;;;;;;10.63;71.20;101089.06;4997984;28;20039;-81
2021/03/25 08:56:25;;;;;;;37.72;22.60;;;;;;;11.08;70.61;101084.25;5057162;28;20021;-80
2021/03/25 08:58:54;;;;;;;38.15;23.33;;;;;;;11.15;67.06;101088.50;5039553;28;20027;-80
2021/03/25 09:01:29;;;;;;;40.85;23.50;;;;;;;11.18;68.74;101083.28;5056046;28;20082;-80
2021/03/25 09:03:58;;;;;;;38.05;20.83;;;;;;;10.76;68.97;101088.06;5038195;28;20021;-81
2021/03/25 09:06:28;;;;;;;37.72;24.23;;;;;;;10.07;72.05;101087.81;5056155;28;20025;-81
2021/03/25 09:09:07;;;;;;;32.83;21.15;;;;;;;11.05;70.21;101087.75;5038717;28;20389;-81
2021/03/25 09:11:32;;;;;;;38.53;21.27;;;;;;;12.11;65.68;101078.50;5055735;28;20473;-81
2021/03/25 09:13:59;;;;;;;33.33;19.52;;;;;;;12.14;65.20;101073.25;5055979;28;20035;-80
2021/03/25 09:16:31;;;;;;;33.95;20.73;;;;;;;12.98;62.74;101080.41;5037819;28;20028;-80
2021/03/25 09:18:58;;;;;;;33.95;20.15;;;;;;;13.09;60.30;101075.88;5038353;28;20020;-80
2021/03/25 09:21:27;;;;;;;36.75;21.20;;;;;;;11.83;64.19;101069.41;5055974;28;20043;-80
2021/03/25 09:24:06;;;;;;;30.13;19.83;;;;;;;13.20;61.15;101071.28;5038308;28;20111;-80
2021/03/25 09:26:31;;;;;;;37.55;20.00;;;;;;;14.03;57.55;101070.28;5038138;28;20048;-80
2021/03/25 09:29:00;;;;;;;35.40;20.70;;;;;;;11.34;65.79;101075.28;5037510;28;20144;-80
2021/03/25 09:31:31;;;;;;;33.55;20.45;;;;;;;12.97;61.15;101070.91;5037932;28;20202;-79
2021/03/25 09:33:58;;;;;;;34.03;19.63;;;;;;;12.96;60.81;101064.84;5055136;28;20548;-80
2021/03/25 09:36:23;;;;;;;31.02;19.50;;;;;;;13.22;60.09;101064.28;5037896;28;20028;-81
2021/03/25 09:39:19;;;;;;;31.93;20.10;;;;;;;13.85;57.64;101060.31;5055760;28;20047;-80
2021/03/25 09:41:45;;;;;;;30.35;18.05;;;;;;;14.60;55.60;101048.00;5056070;28;20278;-80
2021/03/25 09:44:10;;;;;;;30.90;18.40;;;;;;;15.02;53.77;101057.28;5038042;28;20378;-80
2021/03/25 09:46:44;;;;;;;30.23;18.50;;;;;;;14.46;55.56;101058.78;5055393;28;20028;-80
2021/03/25 09:49:18;;;;;;;25.67;15.45;;;;;;;13.97;54.55;101052.19;5055569;28;20044;-80
2021/03/25 09:51:44;;;;;;;22.50;14.15;;;;;;;13.71;55.59;101052.81;5037606;28;20086;-80
2021/03/25 09:54:24;;;;;;;25.58;14.75;;;;;;;14.38;54.01;101059.91;5037598;28;20481;-80
2021/03/25 09:57:18;;;;;;;25.10;15.75;;;;;;;14.55;52.70;101057.72;5055813;28;20025;-80
2021/03/25 10:00:06;;;;;;;27.33;16.83;;;;;;;15.57;49.75;101047.81;5055438;28;20020;-80
2021/03/25 10:02:38;;;;;;;23.45;15.02;;;;;;;15.47;50.87;101043.78;5037617;28;20362;-80
2021/03/25 10:05:28;;;;;;;25.33;15.40;;;;;;;14.87;51.07;101046.41;5037780;28;20032;-81
2021/03/25 10:08:08;;;;;;;27.13;15.95;;;;;;;14.28;52.76;101049.69;5037524;28;20419;-80
2021/03/25 10:10:43;;;;;;;23.17;13.98;;;;;;;15.30;50.40;101044.28;5037376;28;20058;-80
2021/03/25 10:13:09;;;;;;;25.50;14.88;;;;;;;14.98;49.91;101042.63;5037691;28;20440;-80
2021/03/25 10:15:41;;;;;;;26.80;14.10;;;;;;;15.32;49.36;101039.88;5037613;28;20021;-80
2021/03/25 10:18:11;;;;;;;18.95;11.32;;;;;;;13.20;53.17;101040.03;5038442;28;20409;-80
2021/03/25 10:20:58;;;;;;;16.92;9.88;;;;;;;12.52;53.85;101039.66;5037524;28;20025;-80
2021/03/25 10:23:28;;;;;;;17.15;10.13;;;;;;;14.61;49.71;101035.81;5037396;28;20021;-80
2021/03/25 10:26:15;;;;;;;13.77;7.35;;;;;;;15.17;46.02;101026.34;5037283;28;20041;-80
2021/03/25 10:28:50;;;;;;;16.77;8.52;;;;;;;15.93;44.47;101017.06;5040711;28;20072;-79
2021/03/25 10:31:21;;;;;;;18.85;11.57;;;;;;;14.96;47.46;101017.41;5054571;28;20104;-80
2021/03/25 10:33:49;;;;;;;17.35;9.80;;;;;;;14.81;47.50;101027.41;5036862;28;20032;-80
2021/03/25 10:36:43;;;;;;;20.42;11.40;;;;;;;15.07;46.04;101019.69;5036698;28;20025;-80
2021/03/25 10:39:25;;;;;;;14.38;7.72;;;;;;;14.98;44.92;101019.97;5047396;28;20055;-79
2021/03/25 10:41:51;;;;;;;16.10;8.98;;;;;;;15.53;45.26;101012.22;5054365;28;20029;-79
2021/03/25 10:44:23;;;;;;;17.30;9.73;;;;;;;14.78;46.53;101017.06;5036428;28;20039;-79
2021/03/25 10:46:49;;;;;;;17.50;10.55;;;;;;;13.22;51.40;101017.41;5037245;28;20025;-79
2021/03/25 10:49:18;;;;;;;18.90;10.88;;;;;;;14.95;48.52;101013.06;5036543;28;20544;-79
2021/03/25 10:51:46;;;;;;;17.63;10.85;;;;;;;15.66;46.70;101005.69;5054268;28;20029;-79
2021/03/25 10:54:37;;;;;;;21.25;10.63;;;;;;;14.87;47.81;101011.56;5036852;28;20024;-79
2021/03/25 10:57:05;;;;;;;16.80;9.10;;;;;;;13.13;50.96;101004.59;5027183;28;20041;-79
2021/03/25 10:59:32;;;;;;;15.40;8.45;;;;;;;12.50;51.51;101013.69;5036821;28;20117;-79
2021/03/25 11:02:00;;;;;;;16.02;7.90;;;;;;;12.25;54.07;101004.59;5036089;28;20071;-79
2021/03/25 11:04:28;;;;;;;15.32;9.00;;;;;;;12.12;54.48;101002.22;5036115;28;20021;-79
2021/03/25 11:06:54;;;;;;;12.82;7.50;;;;;;;14.94;47.89;100993.09;5036852;28;20025;-79
2021/03/25 11:09:20;;;;;;;11.52;6.95;;;;;;;14.20;48.63;100985.56;5037586;28;20043;-79
2021/03/25 11:11:50;;;;;;;12.48;7.50;;;;;;;15.55;45.62;100985.13;5036520;28;20033;-79
2021/03/25 11:14:24;;;;;;;13.02;7.43;;;;;;;15.94;42.79;100986.50;5054221;28;20036;-79
2021/03/25 11:16:53;;;;;;;15.40;8.80;;;;;;;16.70;43.12;100989.06;5036428;28;20053;-79
2021/03/25 11:19:20;;;;;;;16.85;8.57;;;;;;;15.54;44.97;100988.63;5054539;28;20017;-79
2021/03/25 11:21:45;;;;;;;15.38;8.60;;;;;;;13.38;49.81;100993.66;5036386;28;20021;-79
2021/03/25 11:24:22;;;;;;;14.93;8.88;;;;;;;13.48;49.52;100988.19;5053998;28;20074;-79
2021/03/25 11:26:53;;;;;;;14.30;7.57;;;;;;;13.47;49.70;100996.06;5036407;28;20043;-79
2021/03/25 11:29:20;;;;;;;14.43;7.15;;;;;;;12.99;50.09;100997.09;5058947;23;20065;-77
2021/03/25 11:31:45;;;;;;;12.18;8.25;;;;;;;13.05;50.15;100994.34;5052630;28;20131;-76
2021/03/25 11:34:23;;;;;;;14.18;8.18;;;;;;;12.52;52.20;100996.28;5035121;28;20021;-77
2021/03/25 11:36:49;;;;;;;12.50;7.30;;;;;;;12.24;51.91;100998.53;5052675;28;20021;-76
2021/03/25 11:39:30;;;;;;;13.77;7.88;;;;;;;12.33;52.36;100992.31;5052756;28;20017;-77
2021/03/25 11:41:59;;;;;;;13.25;7.40;;;;;;;12.11;52.90;100999.66;5034822;28;20024;-77
2021/03/25 11:44:37;;;;;;;15.88;8.90;;;;;;;12.83;52.59;100993.06;5052840;28;20032;-77
2021/03/25 11:47:23;;;;;;;17.13;9.52;;;;;;;14.79;48.14;100990.06;5034821;28;20120;-76